Terminal Aerodrome Forecast
Issued by NWS Cleveland, OH

Home | Current Version | Previous Version | Graphics & Text | Print | Product List | Glossary On
Versions: 1 2 3 4 5 6 7 8 9 10 11 12 13 14 15 16 17
000
FTUS41 KCLE 171700
TAFMFD
TAF
KMFD 171725Z 1718/1818 27010G20KT P6SM OVC015
     FM172000 27010G20KT P6SM OVC025
     FM172300 27008KT P6SM OVC015
     FM180200 27008KT P6SM -SHSN OVC015
     FM181200 27008KT P6SM OVC015=

USA.gov is the U.S. government's official web portal to all federal, state and local government web resources and services.